sensor_id;sensor_type;location;lat;lon;timestamp;pressure;altitude;pressure_sealevel;temperature;humidity
48089;BME280;33867;50.314;7.802;2023-01-30T00:01:22;100999.94;;;0.30;83.88
48089;BME280;33867;50.314;7.802;2023-01-30T00:04:42;100988.19;;;0.15;83.72
48089;BME280;33867;50.314;7.802;2023-01-30T00:08:01;100978.81;;;0.28;83.92
48089;BME280;33867;50.314;7.802;2023-01-30T00:11:20;100968.09;;;0.32;83.91
48089;BME280;33867;50.314;7.802;2023-01-30T00:14:40;100958.63;;;0.26;84.88
48089;BME280;33867;50.314;7.802;2023-01-30T00:17:59;100966.88;;;0.18;85.53
48089;BME280;33867;50.314;7.802;2023-01-30T00:21:18;100960.94;;;0.12;86.29
48089;BME280;33867;50.314;7.802;2023-01-30T00:24:37;100947.63;;;0.35;84.74
48089;BME280;33867;50.314;7.802;2023-01-30T00:27:58;100944.00;;;0.38;84.55
48089;BME280;33867;50.314;7.802;2023-01-30T00:31:17;100947.38;;;0.41;85.62
48089;BME280;33867;50.314;7.802;2023-01-30T00:34:36;100931.81;;;0.54;84.03
48089;BME280;33867;50.314;7.802;2023-01-30T00:37:56;100958.34;;;0.32;84.41
48089;BME280;33867;50.314;7.802;2023-01-30T00:41:15;100947.50;;;0.38;84.70
48089;BME280;33867;50.314;7.802;2023-01-30T00:44:36;100952.88;;;0.37;84.49
48089;BME280;33867;50.314;7.802;2023-01-30T00:48:14;100951.28;;;0.53;83.31
48089;BME280;33867;50.314;7.802;2023-01-30T00:51:33;100931.66;;;0.57;84.78
48089;BME280;33867;50.314;7.802;2023-01-30T00:54:52;100924.25;;;0.45;83.82
48089;BME280;33867;50.314;7.802;2023-01-30T00:58:12;100912.72;;;0.46;84.54
48089;BME280;33867;50.314;7.802;2023-01-30T01:01:31;100908.75;;;0.56;83.69
48089;BME280;33867;50.314;7.802;2023-01-30T01:04:50;100903.31;;;0.59;83.46
48089;BME280;33867;50.314;7.802;2023-01-30T01:08:10;100910.91;;;0.48;84.74
48089;BME280;33867;50.314;7.802;2023-01-30T01:11:29;100897.16;;;0.58;83.86
48089;BME280;33867;50.314;7.802;2023-01-30T01:14:48;100896.59;;;0.52;84.13
48089;BME280;33867;50.314;7.802;2023-01-30T01:18:09;100897.03;;;0.62;83.94
48089;BME280;33867;50.314;7.802;2023-01-30T01:21:28;100886.09;;;0.69;83.66
48089;BME280;33867;50.314;7.802;2023-01-30T01:24:46;100878.75;;;0.76;83.58
48089;BME280;33867;50.314;7.802;2023-01-30T01:28:06;100869.78;;;0.78;83.66
48089;BME280;33867;50.314;7.802;2023-01-30T01:31:25;100868.44;;;0.88;83.21
48089;BME280;33867;50.314;7.802;2023-01-30T01:34:44;100866.72;;;0.87;82.84
48089;BME280;33867;50.314;7.802;2023-01-30T01:38:04;100861.69;;;0.81;83.40
48089;BME280;33867;50.314;7.802;2023-01-30T01:41:23;100853.16;;;0.94;83.16
48089;BME280;33867;50.314;7.802;2023-01-30T01:45:11;100851.91;;;0.83;83.56
48089;BME280;33867;50.314;7.802;2023-01-30T01:48:40;100839.13;;;0.92;83.29
48089;BME280;33867;50.314;7.802;2023-01-30T01:52:12;100829.19;;;0.97;82.66
48089;BME280;33867;50.314;7.802;2023-01-30T01:55:33;100826.63;;;0.95;83.34
48089;BME280;33867;50.314;7.802;2023-01-30T01:59:01;100820.56;;;0.73;84.59
48089;BME280;33867;50.314;7.802;2023-01-30T02:02:24;100827.66;;;0.72;85.13
48089;BME280;33867;50.314;7.802;2023-01-30T02:05:45;100828.91;;;0.84;84.70
48089;BME280;33867;50.314;7.802;2023-01-30T02:09:07;100833.13;;;0.88;84.63
48089;BME280;33867;50.314;7.802;2023-01-30T02:12:28;100828.69;;;0.88;84.35
48089;BME280;33867;50.314;7.802;2023-01-30T02:15:48;100821.31;;;0.95;84.57
48089;BME280;33867;50.314;7.802;2023-01-30T02:19:20;100820.94;;;1.03;83.97
48089;BME280;33867;50.314;7.802;2023-01-30T02:26:46;100800.44;;;1.06;84.53
48089;BME280;33867;50.314;7.802;2023-01-30T02:34:21;100827.31;;;0.99;85.64
48089;BME280;33867;50.314;7.802;2023-01-30T02:38:23;100820.16;;;1.01;84.93
48089;BME280;33867;50.314;7.802;2023-01-30T02:41:59;100821.53;;;1.09;85.07
48089;BME280;33867;50.314;7.802;2023-01-30T02:45:47;100818.72;;;1.12;84.28
48089;BME280;33867;50.314;7.802;2023-01-30T02:49:22;100818.50;;;1.17;84.51
48089;BME280;33867;50.314;7.802;2023-01-30T02:52:45;100828.16;;;1.18;84.50
48089;BME280;33867;50.314;7.802;2023-01-30T02:56:05;100821.38;;;1.12;85.16
48089;BME280;33867;50.314;7.802;2023-01-30T02:59:37;100817.28;;;1.24;84.69
48089;BME280;33867;50.314;7.802;2023-01-30T03:03:11;100811.03;;;1.44;83.18
48089;BME280;33867;50.314;7.802;2023-01-30T03:07:05;100806.44;;;1.29;84.24
48089;BME280;33867;50.314;7.802;2023-01-30T03:10:41;100795.56;;;1.16;85.58
48089;BME280;33867;50.314;7.802;2023-01-30T03:14:13;100789.88;;;1.24;84.93
48089;BME280;33867;50.314;7.802;2023-01-30T03:17:39;100791.59;;;1.25;85.34
48089;BME280;33867;50.314;7.802;2023-01-30T03:21:04;100782.53;;;1.11;85.77
48089;BME280;33867;50.314;7.802;2023-01-30T03:24:23;100787.31;;;1.22;85.58
48089;BME280;33867;50.314;7.802;2023-01-30T03:27:43;100783.06;;;1.18;86.27
48089;BME280;33867;50.314;7.802;2023-01-30T03:31:03;100781.16;;;1.22;86.24
48089;BME280;33867;50.314;7.802;2023-01-30T03:34:22;100773.91;;;1.25;86.27
48089;BME280;33867;50.314;7.802;2023-01-30T03:37:41;100762.75;;;1.19;86.48
48089;BME280;33867;50.314;7.802;2023-01-30T03:41:01;100765.16;;;1.23;86.10
48089;BME280;33867;50.314;7.802;2023-01-30T03:44:21;100765.16;;;1.23;86.03
48089;BME280;33867;50.314;7.802;2023-01-30T03:47:40;100755.09;;;1.30;86.61
48089;BME280;33867;50.314;7.802;2023-01-30T03:50:59;100748.81;;;1.32;86.19
48089;BME280;33867;50.314;7.802;2023-01-30T03:54:18;100742.72;;;1.30;86.44
48089;BME280;33867;50.314;7.802;2023-01-30T03:57:37;100738.41;;;1.28;86.83
48089;BME280;33867;50.314;7.802;2023-01-30T04:00:56;100734.88;;;1.27;86.37
48089;BME280;33867;50.314;7.802;2023-01-30T04:04:15;100722.34;;;1.31;86.62
48089;BME280;33867;50.314;7.802;2023-01-30T04:07:34;100725.47;;;1.39;86.47
48089;BME280;33867;50.314;7.802;2023-01-30T04:10:54;100715.09;;;1.34;86.80
48089;BME280;33867;50.314;7.802;2023-01-30T04:14:13;100697.78;;;1.44;86.11
48089;BME280;33867;50.314;7.802;2023-01-30T04:17:52;100697.78;;;1.44;85.83
48089;BME280;33867;50.314;7.802;2023-01-30T04:21:30;100682.84;;;1.42;86.75
48089;BME280;33867;50.314;7.802;2023-01-30T04:24:50;100677.97;;;1.34;87.13
48089;BME280;33867;50.314;7.802;2023-01-30T04:28:09;100677.03;;;1.35;87.38
48089;BME280;33867;50.314;7.802;2023-01-30T04:31:29;100666.06;;;1.41;86.98
48089;BME280;33867;50.314;7.802;2023-01-30T04:35:04;100663.03;;;1.49;86.87
48089;BME280;33867;50.314;7.802;2023-01-30T04:38:25;100657.44;;;1.55;86.58
48089;BME280;33867;50.314;7.802;2023-01-30T04:41:45;100660.00;;;1.57;86.37
48089;BME280;33867;50.314;7.802;2023-01-30T04:45:04;100655.00;;;1.51;86.74
48089;BME280;33867;50.314;7.802;2023-01-30T04:48:24;100659.06;;;1.58;86.49
48089;BME280;33867;50.314;7.802;2023-01-30T04:51:51;100660.31;;;1.68;85.65
48089;BME280;33867;50.314;7.802;2023-01-30T04:55:13;100654.22;;;1.66;85.96
48089;BME280;33867;50.314;7.802;2023-01-30T04:58:32;100655.00;;;1.68;86.22
48089;BME280;33867;50.314;7.802;2023-01-30T05:01:51;100654.59;;;1.75;86.40
48089;BME280;33867;50.314;7.802;2023-01-30T05:05:10;100648.94;;;1.66;87.06
48089;BME280;33867;50.314;7.802;2023-01-30T05:08:29;100643.97;;;1.75;86.75
48089;BME280;33867;50.314;7.802;2023-01-30T05:11:48;100640.75;;;1.86;86.21
48089;BME280;33867;50.314;7.802;2023-01-30T05:15:08;100641.09;;;1.80;86.97
48089;BME280;33867;50.314;7.802;2023-01-30T05:18:29;100628.41;;;1.85;87.88
48089;BME280;33867;50.314;7.802;2023-01-30T05:21:48;100623.38;;;1.81;88.31
48089;BME280;33867;50.314;7.802;2023-01-30T05:25:08;100620.16;;;1.74;88.55
48089;BME280;33867;50.314;7.802;2023-01-30T05:28:27;100621.16;;;1.56;89.89
48089;BME280;33867;50.314;7.802;2023-01-30T05:31:47;100606.75;;;1.60;89.71
48089;BME280;33867;50.314;7.802;2023-01-30T05:35:06;100590.66;;;1.63;89.17
48089;BME280;33867;50.314;7.802;2023-01-30T05:38:26;100598.63;;;1.63;89.06
48089;BME280;33867;50.314;7.802;2023-01-30T05:41:45;100586.84;;;1.68;89.09
48089;BME280;33867;50.314;7.802;2023-01-30T05:45:05;100585.66;;;1.74;88.45
48089;BME280;33867;50.314;7.802;2023-01-30T05:48:24;100585.47;;;1.77;87.56
48089;BME280;33867;50.314;7.802;2023-01-30T05:51:43;100587.72;;;1.69;88.54
48089;BME280;33867;50.314;7.802;2023-01-30T05:55:02;100589.66;;;1.65;88.46
48089;BME280;33867;50.314;7.802;2023-01-30T05:58:21;100580.22;;;1.60;89.08
48089;BME280;33867;50.314;7.802;2023-01-30T06:01:41;100588.66;;;1.68;88.55
48089;BME280;33867;50.314;7.802;2023-01-30T06:05:00;100590.66;;;1.80;88.48
48089;BME280;33867;50.314;7.802;2023-01-30T06:08:19;100590.03;;;1.75;88.72
48089;BME280;33867;50.314;7.802;2023-01-30T06:11:38;100578.06;;;1.84;88.70
48089;BME280;33867;50.314;7.802;2023-01-30T06:14:57;100597.78;;;1.95;88.06
48089;BME280;33867;50.314;7.802;2023-01-30T06:18:16;100608.56;;;1.92;88.20
48089;BME280;33867;50.314;7.802;2023-01-30T06:21:35;100598.91;;;1.91;88.38
48089;BME280;33867;50.314;7.802;2023-01-30T06:24:54;100593.59;;;1.91;88.39
48089;BME280;33867;50.314;7.802;2023-01-30T06:28:15;100594.53;;;1.90;88.49
48089;BME280;33867;50.314;7.802;2023-01-30T06:31:34;100594.66;;;1.87;88.97
48089;BME280;33867;50.314;7.802;2023-01-30T06:34:53;100590.94;;;1.91;89.13
48089;BME280;33867;50.314;7.802;2023-01-30T06:38:12;100590.59;;;1.97;89.19
48089;BME280;33867;50.314;7.802;2023-01-30T06:41:31;100590.31;;;1.86;89.46
48089;BME280;33867;50.314;7.802;2023-01-30T06:44:50;100575.84;;;1.92;89.07
48089;BME280;33867;50.314;7.802;2023-01-30T06:48:10;100583.25;;;2.02;89.12
48089;BME280;33867;50.314;7.802;2023-01-30T06:51:30;100582.97;;;2.07;89.18
48089;BME280;33867;50.314;7.802;2023-01-30T06:54:50;100595.56;;;2.03;88.45
48089;BME280;33867;50.314;7.802;2023-01-30T06:58:11;100592.38;;;2.13;88.60
48089;BME280;33867;50.314;7.802;2023-01-30T07:01:30;100610.84;;;2.16;88.46
48089;BME280;33867;50.314;7.802;2023-01-30T07:04:50;100616.09;;;2.00;90.77
48089;BME280;33867;50.314;7.802;2023-01-30T07:08:09;100627.28;;;2.07;90.24
48089;BME280;33867;50.314;7.802;2023-01-30T07:11:29;100608.59;;;2.08;90.53
48089;BME280;33867;50.314;7.802;2023-01-30T07:14:55;100608.31;;;2.13;91.11
48089;BME280;33867;50.314;7.802;2023-01-30T07:18:14;100613.22;;;2.20;90.53
48089;BME280;33867;50.314;7.802;2023-01-30T07:21:33;100605.53;;;2.16;91.28
48089;BME280;33867;50.314;7.802;2023-01-30T07:24:52;100610.00;;;2.31;90.86
48089;BME280;33867;50.314;7.802;2023-01-30T07:28:11;100621.72;;;2.43;89.54
48089;BME280;33867;50.314;7.802;2023-01-30T07:31:31;100624.91;;;2.33;90.94
48089;BME280;33867;50.314;7.802;2023-01-30T07:34:49;100626.19;;;2.26;91.21
48089;BME280;33867;50.314;7.802;2023-01-30T07:38:09;100630.19;;;2.18;91.94
48089;BME280;33867;50.314;7.802;2023-01-30T07:41:28;100638.63;;;2.26;91.89
48089;BME280;33867;50.314;7.802;2023-01-30T07:44:47;100620.28;;;2.37;91.27
48089;BME280;33867;50.314;7.802;2023-01-30T07:48:07;100624.53;;;2.24;91.08
48089;BME280;33867;50.314;7.802;2023-01-30T07:51:27;100614.97;;;2.37;91.58
48089;BME280;33867;50.314;7.802;2023-01-30T07:54:46;100621.72;;;2.43;90.88
48089;BME280;33867;50.314;7.802;2023-01-30T08:02:02;100583.41;;;2.31;92.15
48089;BME280;33867;50.314;7.802;2023-01-30T08:06:02;100594.22;;;2.44;91.91
48089;BME280;33867;50.314;7.802;2023-01-30T08:09:21;100587.31;;;2.71;90.00
48089;BME280;33867;50.314;7.802;2023-01-30T08:12:40;100586.31;;;2.74;91.03
48089;BME280;33867;50.314;7.802;2023-01-30T08:16:01;100590.09;;;2.54;92.10
48089;BME280;33867;50.314;7.802;2023-01-30T11:43:27;100545.53;;;7.89;70.14
48089;BME280;33867;50.314;7.802;2023-01-30T12:11:42;100535.97;;;6.23;75.52
48089;BME280;33867;50.314;7.802;2023-01-30T12:19:48;100531.78;;;6.31;74.15
48089;BME280;33867;50.314;7.802;2023-01-30T13:05:10;100540.50;;;6.46;73.93
48089;BME280;33867;50.314;7.802;2023-01-30T13:21:22;100548.22;;;6.86;71.92
48089;BME280;33867;50.314;7.802;2023-01-30T13:28:17;100542.31;;;6.69;71.48
48089;BME280;33867;50.314;7.802;2023-01-30T13:31:43;100564.50;;;6.35;70.81
48089;BME280;33867;50.314;7.802;2023-01-30T13:35:18;100563.94;;;6.06;75.06
48089;BME280;33867;50.314;7.802;2023-01-30T13:43:54;100606.88;;;5.52;80.39
48089;BME280;33867;50.314;7.802;2023-01-30T13:54:56;100620.84;;;5.55;80.88
48089;BME280;33867;50.314;7.802;2023-01-30T13:58:33;100623.53;;;5.68;81.77
48089;BME280;33867;50.314;7.802;2023-01-30T14:24:22;100655.94;;;6.53;77.69
48089;BME280;33867;50.314;7.802;2023-01-30T14:35:36;100677.91;;;6.20;76.29
48089;BME280;33867;50.314;7.802;2023-01-30T14:43:54;100676.19;;;6.06;76.62
48089;BME280;33867;50.314;7.802;2023-01-30T14:47:18;100674.03;;;5.98;76.36
48089;BME280;33867;50.314;7.802;2023-01-30T14:50:37;100689.56;;;5.93;76.18
48089;BME280;33867;50.314;7.802;2023-01-30T14:54:00;100690.16;;;5.84;75.75
48089;BME280;33867;50.314;7.802;2023-01-30T14:57:25;100697.94;;;5.87;77.16
48089;BME280;33867;50.314;7.802;2023-01-30T15:00:57;100698.81;;;5.87;75.40
48089;BME280;33867;50.314;7.802;2023-01-30T15:04:18;100699.47;;;5.91;74.73
48089;BME280;33867;50.314;7.802;2023-01-30T15:11:28;100713.59;;;5.93;73.62
48089;BME280;33867;50.314;7.802;2023-01-30T15:15:28;100710.47;;;5.86;74.32
48089;BME280;33867;50.314;7.802;2023-01-30T15:22:46;100714.06;;;5.73;74.81
48089;BME280;33867;50.314;7.802;2023-01-30T15:33:52;100721.22;;;5.72;74.29
48089;BME280;33867;50.314;7.802;2023-01-30T15:37:31;100722.47;;;5.67;75.06
48089;BME280;33867;50.314;7.802;2023-01-30T15:41:18;100742.00;;;5.54;74.48
48089;BME280;33867;50.314;7.802;2023-01-30T15:45:14;100734.53;;;5.47;74.88
48089;BME280;33867;50.314;7.802;2023-01-30T15:52:11;100741.00;;;5.43;74.89
48089;BME280;33867;50.314;7.802;2023-01-30T15:55:33;100732.19;;;5.28;74.83
48089;BME280;33867;50.314;7.802;2023-01-30T15:59:04;100740.56;;;5.09;74.68
48089;BME280;33867;50.314;7.802;2023-01-30T16:03:19;100762.59;;;4.98;76.19
48089;BME280;33867;50.314;7.802;2023-01-30T16:07:34;100763.19;;;4.89;75.60
48089;BME280;33867;50.314;7.802;2023-01-30T16:11:02;100768.88;;;4.83;75.62
48089;BME280;33867;50.314;7.802;2023-01-30T16:15:29;100780.16;;;4.74;76.36
48089;BME280;33867;50.314;7.802;2023-01-30T16:18:58;100779.56;;;4.69;75.29
48089;BME280;33867;50.314;7.802;2023-01-30T16:22:18;100784.16;;;4.67;74.94
48089;BME280;33867;50.314;7.802;2023-01-30T16:25:52;100795.38;;;4.58;77.28
48089;BME280;33867;50.314;7.802;2023-01-30T16:30:05;100811.50;;;4.70;75.85
48089;BME280;33867;50.314;7.802;2023-01-30T16:33:30;100818.28;;;4.76;75.36
48089;BME280;33867;50.314;7.802;2023-01-30T16:37:34;100828.44;;;4.84;74.24
48089;BME280;33867;50.314;7.802;2023-01-30T16:40:54;100831.91;;;4.86;75.15
48089;BME280;33867;50.314;7.802;2023-01-30T16:44:18;100842.38;;;4.89;75.64
48089;BME280;33867;50.314;7.802;2023-01-30T16:47:38;100843.69;;;4.82;75.23
48089;BME280;33867;50.314;7.802;2023-01-30T16:54:23;100852.56;;;4.82;74.82
48089;BME280;33867;50.314;7.802;2023-01-30T16:58:01;100849.22;;;4.93;74.28
48089;BME280;33867;50.314;7.802;2023-01-30T17:02:04;100852.56;;;4.82;74.94
48089;BME280;33867;50.314;7.802;2023-01-30T17:05:38;100860.28;;;4.87;75.37
48089;BME280;33867;50.314;7.802;2023-01-30T17:09:06;100869.13;;;4.73;74.58
48089;BME280;33867;50.314;7.802;2023-01-30T17:12:47;100878.00;;;4.74;75.38
48089;BME280;33867;50.314;7.802;2023-01-30T17:16:19;100880.75;;;4.72;74.66
48089;BME280;33867;50.314;7.802;2023-01-30T17:19:48;100889.13;;;4.66;75.06
48089;BME280;33867;50.314;7.802;2023-01-30T17:23:59;100887.41;;;4.65;75.02
48089;BME280;33867;50.314;7.802;2023-01-30T17:27:47;100896.84;;;4.70;75.05
48089;BME280;33867;50.314;7.802;2023-01-30T17:31:10;100908.78;;;4.79;72.92
48089;BME280;33867;50.314;7.802;2023-01-30T17:34:29;100903.44;;;4.79;74.70
48089;BME280;33867;50.314;7.802;2023-01-30T17:38:19;100925.34;;;4.84;73.65
48089;BME280;33867;50.314;7.802;2023-01-30T17:42:04;100928.50;;;4.91;74.16
48089;BME280;33867;50.314;7.802;2023-01-30T17:45:29;100927.38;;;4.95;74.15
48089;BME280;33867;50.314;7.802;2023-01-30T17:49:19;100939.09;;;4.92;74.28
48089;BME280;33867;50.314;7.802;2023-01-30T17:52:39;100937.19;;;4.94;73.55
48089;BME280;33867;50.314;7.802;2023-01-30T17:55:59;100949.41;;;4.98;74.38
48089;BME280;33867;50.314;7.802;2023-01-30T17:59:50;100960.84;;;5.01;74.03
48089;BME280;33867;50.314;7.802;2023-01-30T18:03:31;100954.53;;;5.02;72.97
48089;BME280;33867;50.314;7.802;2023-01-30T18:06:57;100958.84;;;5.04;73.77
48089;BME280;33867;50.314;7.802;2023-01-30T18:10:18;100978.97;;;5.10;73.52
48089;BME280;33867;50.314;7.802;2023-01-30T18:13:38;100985.31;;;5.07;73.92
48089;BME280;33867;50.314;7.802;2023-01-30T18:16:57;100986.97;;;5.10;73.10
48089;BME280;33867;50.314;7.802;2023-01-30T18:20:18;100995.25;;;5.19;73.35
48089;BME280;33867;50.314;7.802;2023-01-30T18:23:37;101004.41;;;5.15;72.53
48089;BME280;33867;50.314;7.802;2023-01-30T18:26:57;101003.75;;;5.12;73.50
48089;BME280;33867;50.314;7.802;2023-01-30T18:30:16;101006.44;;;5.26;72.98
48089;BME280;33867;50.314;7.802;2023-01-30T18:33:36;101021.28;;;5.16;72.97
48089;BME280;33867;50.314;7.802;2023-01-30T18:36:58;101030.06;;;5.18;73.93
48089;BME280;33867;50.314;7.802;2023-01-30T18:40:18;101030.06;;;5.18;73.73
48089;BME280;33867;50.314;7.802;2023-01-30T18:43:38;101039.03;;;5.17;73.11
48089;BME280;33867;50.314;7.802;2023-01-30T18:46:57;101037.31;;;5.16;73.32
48089;BME280;33867;50.314;7.802;2023-01-30T18:50:16;101038.94;;;5.18;73.41
48089;BME280;33867;50.314;7.802;2023-01-30T18:53:51;101044.78;;;5.25;72.66
48089;BME280;33867;50.314;7.802;2023-01-30T18:57:21;101056.00;;;5.30;72.84
48089;BME280;33867;50.314;7.802;2023-01-30T19:00:40;101035.91;;;5.24;72.09
48089;BME280;33867;50.314;7.802;2023-01-30T19:04:00;101046.94;;;5.18;73.64
48089;BME280;33867;50.314;7.802;2023-01-30T19:11:21;101070.38;;;5.13;73.80
48089;BME280;33867;50.314;7.802;2023-01-30T19:14:59;101067.44;;;5.18;73.69
48089;BME280;33867;50.314;7.802;2023-01-30T19:18:19;101064.19;;;5.13;72.99
48089;BME280;33867;50.314;7.802;2023-01-30T19:21:38;101066.47;;;5.19;72.26
48089;BME280;33867;50.314;7.802;2023-01-30T19:24:57;101076.41;;;5.17;72.04
48089;BME280;33867;50.314;7.802;2023-01-30T19:28:16;101069.44;;;5.14;72.66
48089;BME280;33867;50.314;7.802;2023-01-30T19:31:36;101074.50;;;5.19;72.84
48089;BME280;33867;50.314;7.802;2023-01-30T19:34:55;101072.63;;;5.21;72.81
48089;BME280;33867;50.314;7.802;2023-01-30T19:38:23;101079.28;;;5.28;72.16
48089;BME280;33867;50.314;7.802;2023-01-30T19:41:45;101074.50;;;5.19;72.93
48089;BME280;33867;50.314;7.802;2023-01-30T19:45:19;101086.03;;;5.19;72.06
48089;BME280;33867;50.314;7.802;2023-01-30T19:53:04;101107.47;;;5.18;72.01
48089;BME280;33867;50.314;7.802;2023-01-30T19:57:00;101102.75;;;5.23;72.79
48089;BME280;33867;50.314;7.802;2023-01-30T20:00:19;101104.47;;;5.24;72.79
48089;BME280;33867;50.314;7.802;2023-01-30T20:03:40;101107.22;;;5.22;72.62
48089;BME280;33867;50.314;7.802;2023-01-30T20:06:59;101107.66;;;5.15;72.52
48089;BME280;33867;50.314;7.802;2023-01-30T20:10:18;101118.44;;;5.13;73.26
48089;BME280;33867;50.314;7.802;2023-01-30T20:13:44;101123.69;;;5.15;72.35
48089;BME280;33867;50.314;7.802;2023-01-30T20:17:09;101133.78;;;5.10;72.18
48089;BME280;33867;50.314;7.802;2023-01-30T20:20:32;101138.66;;;5.17;72.92
48089;BME280;33867;50.314;7.802;2023-01-30T20:24:01;101133.81;;;5.24;72.67
48089;BME280;33867;50.314;7.802;2023-01-30T20:27:23;101150.94;;;5.20;72.55
48089;BME280;33867;50.314;7.802;2023-01-30T20:30:48;101144.75;;;5.19;72.44
48089;BME280;33867;50.314;7.802;2023-01-30T20:34:10;101147.28;;;5.07;73.35
48089;BME280;33867;50.314;7.802;2023-01-30T20:41:34;101152.84;;;5.18;72.49
48089;BME280;33867;50.314;7.802;2023-01-30T20:45:39;101166.63;;;5.26;73.52
48089;BME280;33867;50.314;7.802;2023-01-30T20:49:43;101191.16;;;5.33;74.52
48089;BME280;33867;50.314;7.802;2023-01-30T20:53:03;101199.00;;;5.20;76.35
48089;BME280;33867;50.314;7.802;2023-01-30T20:56:23;101210.94;;;4.98;76.87
48089;BME280;33867;50.314;7.802;2023-01-30T21:00:17;101222.81;;;4.77;79.26
48089;BME280;33867;50.314;7.802;2023-01-30T21:03:40;101210.75;;;4.70;79.38
48089;BME280;33867;50.314;7.802;2023-01-30T21:07:25;101216.78;;;4.89;79.29
48089;BME280;33867;50.314;7.802;2023-01-30T21:11:09;101227.03;;;4.81;79.70
48089;BME280;33867;50.314;7.802;2023-01-30T21:14:28;101225.88;;;4.85;80.68
48089;BME280;33867;50.314;7.802;2023-01-30T21:18:07;101239.50;;;4.65;82.78
48089;BME280;33867;50.314;7.802;2023-01-30T21:21:32;101237.41;;;4.54;81.85
48089;BME280;33867;50.314;7.802;2023-01-30T21:24:52;101243.81;;;4.67;81.17
48089;BME280;33867;50.314;7.802;2023-01-30T21:28:11;101253.53;;;4.35;83.81
48089;BME280;33867;50.314;7.802;2023-01-30T21:31:31;101257.19;;;4.17;85.17
48089;BME280;33867;50.314;7.802;2023-01-30T21:34:52;101262.56;;;4.33;83.67
48089;BME280;33867;50.314;7.802;2023-01-30T21:38:11;101272.72;;;4.09;87.43
48089;BME280;33867;50.314;7.802;2023-01-30T21:41:49;101269.88;;;4.29;85.81
48089;BME280;33867;50.314;7.802;2023-01-30T21:45:27;101284.44;;;4.22;86.81
48089;BME280;33867;50.314;7.802;2023-01-30T21:48:46;101264.47;;;4.47;84.09
48089;BME280;33867;50.314;7.802;2023-01-30T21:52:05;101278.00;;;4.44;83.43
48089;BME280;33867;50.314;7.802;2023-01-30T21:55:24;101280.53;;;4.29;85.66
48089;BME280;33867;50.314;7.802;2023-01-30T21:58:43;101283.31;;;3.93;88.85
48089;BME280;33867;50.314;7.802;2023-01-30T22:02:02;101294.16;;;4.23;84.47
48089;BME280;33867;50.314;7.802;2023-01-30T22:05:29;101283.69;;;3.86;90.28
48089;BME280;33867;50.314;7.802;2023-01-30T22:08:54;101289.19;;;3.83;89.94
48089;BME280;33867;50.314;7.802;2023-01-30T22:12:17;101298.50;;;4.08;86.40
48089;BME280;33867;50.314;7.802;2023-01-30T22:15:36;101289.19;;;4.17;87.10
48089;BME280;33867;50.314;7.802;2023-01-30T22:22:57;101302.03;;;3.92;88.09
48089;BME280;33867;50.314;7.802;2023-01-30T22:26:19;101297.66;;;3.55;92.72
48089;BME280;33867;50.314;7.802;2023-01-30T22:29:38;101298.91;;;3.84;88.94
48089;BME280;33867;50.314;7.802;2023-01-30T22:32:58;101297.19;;;3.83;89.74
48089;BME280;33867;50.314;7.802;2023-01-30T22:36:17;101294.66;;;3.97;88.61
48089;BME280;33867;50.314;7.802;2023-01-30T22:39:39;101290.88;;;4.01;87.71
48089;BME280;33867;50.314;7.802;2023-01-30T22:43:04;101293.03;;;3.94;87.06
48089;BME280;33867;50.314;7.802;2023-01-30T22:46:32;101297.16;;;4.00;86.89
48089;BME280;33867;50.314;7.802;2023-01-30T22:54:09;101290.22;;;3.80;88.50
48089;BME280;33867;50.314;7.802;2023-01-30T23:01:22;101301.19;;;3.91;87.88
48089;BME280;33867;50.314;7.802;2023-01-30T23:04:45;101293.25;;;3.90;88.10
48089;BME280;33867;50.314;7.802;2023-01-30T23:08:39;101293.88;;;3.95;88.23
48089;BME280;33867;50.314;7.802;2023-01-30T23:11:58;101297.34;;;3.79;89.88
48089;BME280;33867;50.314;7.802;2023-01-30T23:15:36;101291.31;;;3.93;86.77
48089;BME280;33867;50.314;7.802;2023-01-30T23:59:40;101301.50;;;3.32;91.66
